sensor_id;sensor_type;location;lat;lon;timestamp;temperature;humidity
13123;DHT22;6627;50.920;12.050;2023-07-16T00:00:18;19.60;99.90
13123;DHT22;6627;50.920;12.050;2023-07-16T00:02:46;19.60;99.90
13123;DHT22;6627;50.920;12.050;2023-07-16T00:05:15;19.80;99.90
13123;DHT22;6627;50.920;12.050;2023-07-16T00:10:10;19.60;99.90
13123;DHT22;6627;50.920;12.050;2023-07-16T00:12:38;19.70;99.90
13123;DHT22;6627;50.920;12.050;2023-07-16T00:15:07;19.80;99.90
13123;DHT22;6627;50.920;12.050;2023-07-16T00:17:36;19.70;99.90
13123;DHT22;6627;50.920;12.050;2023-07-16T00:20:04;19.60;99.90
13123;DHT22;6627;50.920;12.050;2023-07-16T00:22:32;19.60;99.90
13123;DHT22;6627;50.920;12.050;2023-07-16T00:25:00;19.70;99.90
13123;DHT22;6627;50.920;12.050;2023-07-16T00:27:29;19.60;99.90
13123;DHT22;6627;50.920;12.050;2023-07-16T00:29:56;19.70;99.90
13123;DHT22;6627;50.920;12.050;2023-07-16T00:32:23;19.70;99.90
13123;DHT22;6627;50.920;12.050;2023-07-16T00:34:52;19.70;99.90
13123;DHT22;6627;50.920;12.050;2023-07-16T00:37:19;19.90;99.90
13123;DHT22;6627;50.920;12.050;2023-07-16T00:42:15;20.00;99.90
13123;DHT22;6627;50.920;12.050;2023-07-16T00:44:42;20.00;99.90
13123;DHT22;6627;50.920;12.050;2023-07-16T00:47:09;19.90;99.90
13123;DHT22;6627;50.920;12.050;2023-07-16T00:49:38;19.90;99.90
13123;DHT22;6627;50.920;12.050;2023-07-16T00:52:16;19.90;99.90
13123;DHT22;6627;50.920;12.050;2023-07-16T00:54:46;19.70;99.90
13123;DHT22;6627;50.920;12.050;2023-07-16T00:57:15;19.80;99.90
13123;DHT22;6627;50.920;12.050;2023-07-16T00:59:42;19.90;99.90
13123;DHT22;6627;50.920;12.050;2023-07-16T01:02:10;19.90;99.90
13123;DHT22;6627;50.920;12.050;2023-07-16T01:04:38;19.90;99.90
13123;DHT22;6627;50.920;12.050;2023-07-16T01:07:11;19.80;99.90
13123;DHT22;6627;50.920;12.050;2023-07-16T01:12:10;19.90;99.90
13123;DHT22;6627;50.920;12.050;2023-07-16T01:14:39;19.80;99.90
13123;DHT22;6627;50.920;12.050;2023-07-16T01:17:07;19.80;99.90
13123;DHT22;6627;50.920;12.050;2023-07-16T01:19:35;19.70;99.90
13123;DHT22;6627;50.920;12.050;2023-07-16T01:22:26;19.70;99.90
13123;DHT22;6627;50.920;12.050;2023-07-16T01:28:05;19.60;99.90
13123;DHT22;6627;50.920;12.050;2023-07-16T01:30:44;19.50;99.90
13123;DHT22;6627;50.920;12.050;2023-07-16T01:33:13;19.70;99.90
13123;DHT22;6627;50.920;12.050;2023-07-16T01:35:43;19.70;99.90
13123;DHT22;6627;50.920;12.050;2023-07-16T01:38:13;19.70;99.90
13123;DHT22;6627;50.920;12.050;2023-07-16T01:40:42;19.60;99.90
13123;DHT22;6627;50.920;12.050;2023-07-16T01:43:09;19.60;99.90
13123;DHT22;6627;50.920;12.050;2023-07-16T01:45:36;19.60;99.90
13123;DHT22;6627;50.920;12.050;2023-07-16T01:55:40;19.70;99.90
13123;DHT22;6627;50.920;12.050;2023-07-16T01:58:07;19.70;99.90
13123;DHT22;6627;50.920;12.050;2023-07-16T02:00:36;19.80;99.90
13123;DHT22;6627;50.920;12.050;2023-07-16T02:03:04;19.60;99.90
13123;DHT22;6627;50.920;12.050;2023-07-16T02:05:32;19.60;99.90
13123;DHT22;6627;50.920;12.050;2023-07-16T02:07:59;19.60;99.90
13123;DHT22;6627;50.920;12.050;2023-07-16T02:10:27;19.70;99.90
13123;DHT22;6627;50.920;12.050;2023-07-16T02:12:55;19.90;99.90
13123;DHT22;6627;50.920;12.050;2023-07-16T02:15:22;19.70;99.90
13123;DHT22;6627;50.920;12.050;2023-07-16T02:17:50;19.60;99.90
13123;DHT22;6627;50.920;12.050;2023-07-16T02:25:14;19.50;99.90
13123;DHT22;6627;50.920;12.050;2023-07-16T02:27:41;19.50;99.90
13123;DHT22;6627;50.920;12.050;2023-07-16T02:30:09;19.70;99.90
13123;DHT22;6627;50.920;12.050;2023-07-16T02:32:37;19.70;99.90
13123;DHT22;6627;50.920;12.050;2023-07-16T02:35:05;19.50;99.90
13123;DHT22;6627;50.920;12.050;2023-07-16T02:40:02;19.60;99.90
13123;DHT22;6627;50.920;12.050;2023-07-16T02:42:30;19.50;99.90
13123;DHT22;6627;50.920;12.050;2023-07-16T02:44:57;19.50;99.90
13123;DHT22;6627;50.920;12.050;2023-07-16T02:47:24;19.50;99.90
13123;DHT22;6627;50.920;12.050;2023-07-16T02:49:52;19.50;99.90
13123;DHT22;6627;50.920;12.050;2023-07-16T02:52:19;19.50;99.90
13123;DHT22;6627;50.920;12.050;2023-07-16T02:54:47;19.50;99.90
13123;DHT22;6627;50.920;12.050;2023-07-16T02:57:15;19.30;99.90
13123;DHT22;6627;50.920;12.050;2023-07-16T02:59:42;19.30;99.90
13123;DHT22;6627;50.920;12.050;2023-07-16T03:04:37;19.30;99.90
13123;DHT22;6627;50.920;12.050;2023-07-16T03:07:04;19.40;99.90
13123;DHT22;6627;50.920;12.050;2023-07-16T03:09:32;19.40;99.90
13123;DHT22;6627;50.920;12.050;2023-07-16T03:12:00;19.50;99.90
13123;DHT22;6627;50.920;12.050;2023-07-16T03:14:28;19.60;99.90
13123;DHT22;6627;50.920;12.050;2023-07-16T03:16:55;19.70;99.90
13123;DHT22;6627;50.920;12.050;2023-07-16T03:21:50;19.60;99.90
13123;DHT22;6627;50.920;12.050;2023-07-16T03:24:17;19.60;99.90
13123;DHT22;6627;50.920;12.050;2023-07-16T03:26:44;19.60;99.90
13123;DHT22;6627;50.920;12.050;2023-07-16T03:29:20;19.70;99.90
13123;DHT22;6627;50.920;12.050;2023-07-16T03:31:48;19.70;99.90
13123;DHT22;6627;50.920;12.050;2023-07-16T03:34:16;19.70;99.90
13123;DHT22;6627;50.920;12.050;2023-07-16T03:36:43;19.60;99.90
13123;DHT22;6627;50.920;12.050;2023-07-16T03:39:11;19.60;99.90
13123;DHT22;6627;50.920;12.050;2023-07-16T03:41:38;19.50;99.90
13123;DHT22;6627;50.920;12.050;2023-07-16T03:44:05;19.60;99.90
13123;DHT22;6627;50.920;12.050;2023-07-16T03:46:34;19.60;99.90
13123;DHT22;6627;50.920;12.050;2023-07-16T03:49:01;19.70;99.90
13123;DHT22;6627;50.920;12.050;2023-07-16T03:51:28;19.60;99.90
13123;DHT22;6627;50.920;12.050;2023-07-16T03:53:56;19.70;99.90
13123;DHT22;6627;50.920;12.050;2023-07-16T03:56:23;19.70;99.90
13123;DHT22;6627;50.920;12.050;2023-07-16T03:58:51;19.70;99.90
13123;DHT22;6627;50.920;12.050;2023-07-16T04:01:18;19.70;99.90
13123;DHT22;6627;50.920;12.050;2023-07-16T04:03:46;19.80;99.90
13123;DHT22;6627;50.920;12.050;2023-07-16T04:06:14;19.80;99.90
13123;DHT22;6627;50.920;12.050;2023-07-16T04:08:41;19.80;99.90
13123;DHT22;6627;50.920;12.050;2023-07-16T04:11:08;19.80;99.90
13123;DHT22;6627;50.920;12.050;2023-07-16T04:13:35;19.90;99.90
13123;DHT22;6627;50.920;12.050;2023-07-16T04:16:03;19.90;99.90
13123;DHT22;6627;50.920;12.050;2023-07-16T04:18:31;19.90;99.90
13123;DHT22;6627;50.920;12.050;2023-07-16T04:20:59;19.90;99.90
13123;DHT22;6627;50.920;12.050;2023-07-16T04:23:26;19.90;99.90
13123;DHT22;6627;50.920;12.050;2023-07-16T04:25:55;20.00;99.90
13123;DHT22;6627;50.920;12.050;2023-07-16T04:28:22;20.00;99.90
13123;DHT22;6627;50.920;12.050;2023-07-16T04:30:50;20.00;99.90
13123;DHT22;6627;50.920;12.050;2023-07-16T04:33:17;20.00;99.90
13123;DHT22;6627;50.920;12.050;2023-07-16T04:35:45;20.00;99.90
13123;DHT22;6627;50.920;12.050;2023-07-16T04:38:13;20.00;99.90
13123;DHT22;6627;50.920;12.050;2023-07-16T04:40:41;20.00;99.90
13123;DHT22;6627;50.920;12.050;2023-07-16T04:43:09;20.10;99.90
13123;DHT22;6627;50.920;12.050;2023-07-16T04:45:36;20.00;99.90
13123;DHT22;6627;50.920;12.050;2023-07-16T04:48:05;20.10;99.90
13123;DHT22;6627;50.920;12.050;2023-07-16T04:50:32;20.00;99.90
13123;DHT22;6627;50.920;12.050;2023-07-16T04:53:00;20.00;99.90
13123;DHT22;6627;50.920;12.050;2023-07-16T04:55:28;20.10;99.90
13123;DHT22;6627;50.920;12.050;2023-07-16T04:57:55;20.10;99.90
13123;DHT22;6627;50.920;12.050;2023-07-16T05:00:23;20.10;99.90
13123;DHT22;6627;50.920;12.050;2023-07-16T05:02:50;20.10;99.90
13123;DHT22;6627;50.920;12.050;2023-07-16T05:05:18;20.20;99.90
13123;DHT22;6627;50.920;12.050;2023-07-16T05:07:45;20.20;99.90
13123;DHT22;6627;50.920;12.050;2023-07-16T05:10:15;20.20;99.90
13123;DHT22;6627;50.920;12.050;2023-07-16T05:12:45;20.30;99.90
13123;DHT22;6627;50.920;12.050;2023-07-16T05:15:12;20.40;99.90
13123;DHT22;6627;50.920;12.050;2023-07-16T05:20:08;20.40;99.90
13123;DHT22;6627;50.920;12.050;2023-07-16T05:22:36;20.50;99.90
13123;DHT22;6627;50.920;12.050;2023-07-16T05:25:04;20.40;99.90
13123;DHT22;6627;50.920;12.050;2023-07-16T05:27:32;20.40;99.90
13123;DHT22;6627;50.920;12.050;2023-07-16T05:30:00;20.40;99.90
13123;DHT22;6627;50.920;12.050;2023-07-16T05:32:28;20.30;99.90
13123;DHT22;6627;50.920;12.050;2023-07-16T05:34:55;20.30;99.90
13123;DHT22;6627;50.920;12.050;2023-07-16T05:37:22;20.30;99.90
13123;DHT22;6627;50.920;12.050;2023-07-16T05:39:49;20.40;99.90
13123;DHT22;6627;50.920;12.050;2023-07-16T05:42:17;20.20;99.90
13123;DHT22;6627;50.920;12.050;2023-07-16T05:44:46;20.20;99.90
13123;DHT22;6627;50.920;12.050;2023-07-16T05:47:15;19.90;99.90
13123;DHT22;6627;50.920;12.050;2023-07-16T05:52:11;20.40;99.90
13123;DHT22;6627;50.920;12.050;2023-07-16T05:54:38;20.50;99.90
13123;DHT22;6627;50.920;12.050;2023-07-16T05:57:06;20.60;99.90
13123;DHT22;6627;50.920;12.050;2023-07-16T05:59:33;20.80;99.90
13123;DHT22;6627;50.920;12.050;2023-07-16T06:02:03;20.80;99.90
13123;DHT22;6627;50.920;12.050;2023-07-16T06:04:32;20.80;99.90
13123;DHT22;6627;50.920;12.050;2023-07-16T06:06:59;20.90;99.90
13123;DHT22;6627;50.920;12.050;2023-07-16T06:09:26;21.10;99.90
13123;DHT22;6627;50.920;12.050;2023-07-16T06:11:54;21.20;99.90
13123;DHT22;6627;50.920;12.050;2023-07-16T06:14:21;21.20;99.90
13123;DHT22;6627;50.920;12.050;2023-07-16T06:16:48;21.20;99.90
13123;DHT22;6627;50.920;12.050;2023-07-16T06:19:15;21.10;99.90
13123;DHT22;6627;50.920;12.050;2023-07-16T06:21:44;21.20;99.90
13123;DHT22;6627;50.920;12.050;2023-07-16T06:24:11;21.20;99.90
13123;DHT22;6627;50.920;12.050;2023-07-16T06:26:38;21.20;99.90
13123;DHT22;6627;50.920;12.050;2023-07-16T06:29:05;21.30;99.90
13123;DHT22;6627;50.920;12.050;2023-07-16T06:31:33;21.30;99.90
13123;DHT22;6627;50.920;12.050;2023-07-16T06:34:01;21.40;99.90
13123;DHT22;6627;50.920;12.050;2023-07-16T06:36:28;21.50;99.90
13123;DHT22;6627;50.920;12.050;2023-07-16T06:38:57;21.60;99.90
13123;DHT22;6627;50.920;12.050;2023-07-16T06:41:26;21.70;99.90
13123;DHT22;6627;50.920;12.050;2023-07-16T06:43:54;21.80;99.90
13123;DHT22;6627;50.920;12.050;2023-07-16T06:46:21;21.70;99.90
13123;DHT22;6627;50.920;12.050;2023-07-16T06:51:16;22.00;99.90
13123;DHT22;6627;50.920;12.050;2023-07-16T06:56:12;22.20;99.90
13123;DHT22;6627;50.920;12.050;2023-07-16T06:58:39;22.30;99.90
13123;DHT22;6627;50.920;12.050;2023-07-16T07:01:07;22.40;99.90
13123;DHT22;6627;50.920;12.050;2023-07-16T07:03:34;22.40;99.90
13123;DHT22;6627;50.920;12.050;2023-07-16T07:08:30;22.40;99.90
13123;DHT22;6627;50.920;12.050;2023-07-16T07:10:58;22.70;99.90
13123;DHT22;6627;50.920;12.050;2023-07-16T07:13:27;22.70;99.90
13123;DHT22;6627;50.920;12.050;2023-07-16T07:18:23;22.70;99.90
13123;DHT22;6627;50.920;12.050;2023-07-16T07:20:50;22.80;99.90
13123;DHT22;6627;50.920;12.050;2023-07-16T07:23:17;22.60;99.90
13123;DHT22;6627;50.920;12.050;2023-07-16T07:25:48;22.80;99.90
13123;DHT22;6627;50.920;12.050;2023-07-16T07:30:48;22.40;99.90
13123;DHT22;6627;50.920;12.050;2023-07-16T07:35:43;22.30;99.90
13123;DHT22;6627;50.920;12.050;2023-07-16T07:38:10;22.20;99.90
13123;DHT22;6627;50.920;12.050;2023-07-16T07:40:37;22.00;99.90
13123;DHT22;6627;50.920;12.050;2023-07-16T07:45:32;22.00;99.90
13123;DHT22;6627;50.920;12.050;2023-07-16T07:48:01;22.60;99.90
13123;DHT22;6627;50.920;12.050;2023-07-16T07:50:28;22.80;99.90
13123;DHT22;6627;50.920;12.050;2023-07-16T07:55:23;23.10;99.90
13123;DHT22;6627;50.920;12.050;2023-07-16T07:57:50;23.60;99.90
13123;DHT22;6627;50.920;12.050;2023-07-16T08:00:17;23.80;99.90
13123;DHT22;6627;50.920;12.050;2023-07-16T08:02:45;24.20;99.90
13123;DHT22;6627;50.920;12.050;2023-07-16T08:05:13;24.50;99.90
13123;DHT22;6627;50.920;12.050;2023-07-16T08:10:09;24.10;99.90
13123;DHT22;6627;50.920;12.050;2023-07-16T08:12:36;24.50;99.90
13123;DHT22;6627;50.920;12.050;2023-07-16T08:17:35;24.60;99.90
13123;DHT22;6627;50.920;12.050;2023-07-16T08:22:33;24.50;99.90
13123;DHT22;6627;50.920;12.050;2023-07-16T08:25:00;24.70;99.90
13123;DHT22;6627;50.920;12.050;2023-07-16T08:27:29;24.40;99.90
13123;DHT22;6627;50.920;12.050;2023-07-16T08:29:56;24.40;99.90
13123;DHT22;6627;50.920;12.050;2023-07-16T08:32:24;24.50;99.90
13123;DHT22;6627;50.920;12.050;2023-07-16T08:34:51;24.70;99.90
13123;DHT22;6627;50.920;12.050;2023-07-16T08:37:18;24.40;99.90
13123;DHT22;6627;50.920;12.050;2023-07-16T08:42:18;24.00;99.90
13123;DHT22;6627;50.920;12.050;2023-07-16T08:47:17;24.40;99.90
13123;DHT22;6627;50.920;12.050;2023-07-16T08:52:20;24.60;99.90
13123;DHT22;6627;50.920;12.050;2023-07-16T08:54:49;24.40;99.90
13123;DHT22;6627;50.920;12.050;2023-07-16T08:57:17;24.50;99.90
13123;DHT22;6627;50.920;12.050;2023-07-16T09:02:17;24.50;99.90
13123;DHT22;6627;50.920;12.050;2023-07-16T09:04:46;24.30;99.90
13123;DHT22;6627;50.920;12.050;2023-07-16T09:09:42;24.20;99.90
13123;DHT22;6627;50.920;12.050;2023-07-16T09:12:12;24.20;99.90
13123;DHT22;6627;50.920;12.050;2023-07-16T09:14:40;24.40;99.90
13123;DHT22;6627;50.920;12.050;2023-07-16T09:17:08;24.50;99.90
13123;DHT22;6627;50.920;12.050;2023-07-16T09:19:36;24.50;99.90
13123;DHT22;6627;50.920;12.050;2023-07-16T09:22:03;24.80;99.90
13123;DHT22;6627;50.920;12.050;2023-07-16T09:24:30;24.70;99.90
13123;DHT22;6627;50.920;12.050;2023-07-16T09:26:59;24.80;99.90
13123;DHT22;6627;50.920;12.050;2023-07-16T09:29:28;24.70;99.90
13123;DHT22;6627;50.920;12.050;2023-07-16T09:31:57;24.50;99.90
13123;DHT22;6627;50.920;12.050;2023-07-16T09:39:26;25.00;99.90
13123;DHT22;6627;50.920;12.050;2023-07-16T09:41:54;24.70;99.90
13123;DHT22;6627;50.920;12.050;2023-07-16T09:44:23;24.80;99.90
13123;DHT22;6627;50.920;12.050;2023-07-16T09:46:51;25.20;99.90
13123;DHT22;6627;50.920;12.050;2023-07-16T09:49:19;25.20;99.90
13123;DHT22;6627;50.920;12.050;2023-07-16T09:51:48;25.40;99.90
13123;DHT22;6627;50.920;12.050;2023-07-16T09:54:19;25.20;99.90
13123;DHT22;6627;50.920;12.050;2023-07-16T09:56:50;25.10;99.90
13123;DHT22;6627;50.920;12.050;2023-07-16T10:01:54;25.40;99.90
13123;DHT22;6627;50.920;12.050;2023-07-16T10:04:22;25.50;99.90
13123;DHT22;6627;50.920;12.050;2023-07-16T10:06:53;25.20;99.90
13123;DHT22;6627;50.920;12.050;2023-07-16T10:09:35;25.20;99.90
13123;DHT22;6627;50.920;12.050;2023-07-16T10:12:14;25.50;99.90
13123;DHT22;6627;50.920;12.050;2023-07-16T10:14:44;25.70;99.90
13123;DHT22;6627;50.920;12.050;2023-07-16T10:17:18;25.70;99.90
13123;DHT22;6627;50.920;12.050;2023-07-16T10:19:54;25.60;99.90
13123;DHT22;6627;50.920;12.050;2023-07-16T10:22:32;25.50;99.90
13123;DHT22;6627;50.920;12.050;2023-07-16T10:25:01;25.40;99.90
13123;DHT22;6627;50.920;12.050;2023-07-16T10:29:59;25.20;99.90
13123;DHT22;6627;50.920;12.050;2023-07-16T10:32:31;25.50;99.90
13123;DHT22;6627;50.920;12.050;2023-07-16T10:34:59;25.60;99.90
13123;DHT22;6627;50.920;12.050;2023-07-16T10:39:57;25.20;99.90
13123;DHT22;6627;50.920;12.050;2023-07-16T10:42:26;25.10;99.90
13123;DHT22;6627;50.920;12.050;2023-07-16T10:44:58;25.30;99.90
13123;DHT22;6627;50.920;12.050;2023-07-16T10:47:32;25.70;99.90
13123;DHT22;6627;50.920;12.050;2023-07-16T10:50:02;26.20;99.90
13123;DHT22;6627;50.920;12.050;2023-07-16T10:52:31;26.10;99.90
13123;DHT22;6627;50.920;12.050;2023-07-16T10:54:58;26.00;99.90
13123;DHT22;6627;50.920;12.050;2023-07-16T10:57:26;25.90;99.90
13123;DHT22;6627;50.920;12.050;2023-07-16T10:59:56;26.00;99.90
13123;DHT22;6627;50.920;12.050;2023-07-16T11:02:26;25.90;99.90
13123;DHT22;6627;50.920;12.050;2023-07-16T11:04:55;25.90;99.90
13123;DHT22;6627;50.920;12.050;2023-07-16T11:07:23;26.00;99.90
13123;DHT22;6627;50.920;12.050;2023-07-16T11:09:52;26.10;99.90
13123;DHT22;6627;50.920;12.050;2023-07-16T11:12:22;26.30;99.90
13123;DHT22;6627;50.920;12.050;2023-07-16T11:17:20;26.30;99.90
13123;DHT22;6627;50.920;12.050;2023-07-16T11:19:49;26.30;99.90
13123;DHT22;6627;50.920;12.050;2023-07-16T11:22:20;26.10;99.90
13123;DHT22;6627;50.920;12.050;2023-07-16T11:24:53;26.10;99.90
13123;DHT22;6627;50.920;12.050;2023-07-16T11:27:22;26.50;99.90
13123;DHT22;6627;50.920;12.050;2023-07-16T11:29:52;26.30;99.90
13123;DHT22;6627;50.920;12.050;2023-07-16T11:32:29;26.40;99.90
13123;DHT22;6627;50.920;12.050;2023-07-16T11:34:57;26.30;99.90
13123;DHT22;6627;50.920;12.050;2023-07-16T11:39:56;26.30;99.90
13123;DHT22;6627;50.920;12.050;2023-07-16T11:42:28;26.30;99.50
13123;DHT22;6627;50.920;12.050;2023-07-16T11:44:56;26.40;99.90
13123;DHT22;6627;50.920;12.050;2023-07-16T11:47:24;26.40;99.90
13123;DHT22;6627;50.920;12.050;2023-07-16T11:52:20;26.40;99.90
13123;DHT22;6627;50.920;12.050;2023-07-16T11:54:49;26.50;99.90
13123;DHT22;6627;50.920;12.050;2023-07-16T11:57:17;26.40;99.90
13123;DHT22;6627;50.920;12.050;2023-07-16T11:59:45;26.40;99.90
13123;DHT22;6627;50.920;12.050;2023-07-16T12:02:13;26.40;99.90
13123;DHT22;6627;50.920;12.050;2023-07-16T12:04:40;26.50;98.70
13123;DHT22;6627;50.920;12.050;2023-07-16T12:07:08;26.50;99.90
13123;DHT22;6627;50.920;12.050;2023-07-16T12:09:35;26.10;99.90
13123;DHT22;6627;50.920;12.050;2023-07-16T12:12:05;26.20;99.90
13123;DHT22;6627;50.920;12.050;2023-07-16T12:17:00;26.40;99.90
13123;DHT22;6627;50.920;12.050;2023-07-16T12:19:28;26.30;99.10
13123;DHT22;6627;50.920;12.050;2023-07-16T12:21:55;26.20;97.80
13123;DHT22;6627;50.920;12.050;2023-07-16T12:24:25;26.30;97.40
13123;DHT22;6627;50.920;12.050;2023-07-16T12:26:53;26.20;96.70
13123;DHT22;6627;50.920;12.050;2023-07-16T12:29:21;26.20;97.30
13123;DHT22;6627;50.920;12.050;2023-07-16T12:31:49;26.20;98.30
13123;DHT22;6627;50.920;12.050;2023-07-16T12:39:12;26.40;96.60
13123;DHT22;6627;50.920;12.050;2023-07-16T12:41:40;26.50;97.80
13123;DHT22;6627;50.920;12.050;2023-07-16T12:46:36;26.40;98.60
13123;DHT22;6627;50.920;12.050;2023-07-16T12:49:04;26.50;97.70
13123;DHT22;6627;50.920;12.050;2023-07-16T12:51:33;26.70;98.70
13123;DHT22;6627;50.920;12.050;2023-07-16T12:54:00;26.60;97.40
13123;DHT22;6627;50.920;12.050;2023-07-16T12:56:28;26.70;98.90
13123;DHT22;6627;50.920;12.050;2023-07-16T12:58:57;26.90;98.00
13123;DHT22;6627;50.920;12.050;2023-07-16T13:01:25;26.90;97.70
13123;DHT22;6627;50.920;12.050;2023-07-16T13:06:21;27.00;95.50
13123;DHT22;6627;50.920;12.050;2023-07-16T13:08:48;26.90;96.30
13123;DHT22;6627;50.920;12.050;2023-07-16T13:11:15;26.80;95.60
13123;DHT22;6627;50.920;12.050;2023-07-16T13:13:44;26.80;95.20
13123;DHT22;6627;50.920;12.050;2023-07-16T13:21:08;26.80;93.50
13123;DHT22;6627;50.920;12.050;2023-07-16T13:23:36;26.80;93.70
13123;DHT22;6627;50.920;12.050;2023-07-16T13:26:03;26.80;92.90
13123;DHT22;6627;50.920;12.050;2023-07-16T13:28:30;26.70;95.00
13123;DHT22;6627;50.920;12.050;2023-07-16T13:33:26;26.80;93.70
13123;DHT22;6627;50.920;12.050;2023-07-16T13:35:53;26.90;94.40
13123;DHT22;6627;50.920;12.050;2023-07-16T13:38:22;26.70;92.00
13123;DHT22;6627;50.920;12.050;2023-07-16T13:40:49;26.50;92.00
13123;DHT22;6627;50.920;12.050;2023-07-16T13:45:44;26.60;93.60
13123;DHT22;6627;50.920;12.050;2023-07-16T13:48:11;26.80;94.20
13123;DHT22;6627;50.920;12.050;2023-07-16T13:50:38;26.90;94.50
13123;DHT22;6627;50.920;12.050;2023-07-16T13:53:05;27.10;93.70
13123;DHT22;6627;50.920;12.050;2023-07-16T13:55:34;26.80;93.10
13123;DHT22;6627;50.920;12.050;2023-07-16T14:00:29;26.30;94.30
13123;DHT22;6627;50.920;12.050;2023-07-16T14:02:56;26.50;94.70
13123;DHT22;6627;50.920;12.050;2023-07-16T14:05:24;26.80;96.10
13123;DHT22;6627;50.920;12.050;2023-07-16T14:10:20;26.90;92.30
13123;DHT22;6627;50.920;12.050;2023-07-16T14:12:49;26.80;92.50
13123;DHT22;6627;50.920;12.050;2023-07-16T14:17:44;27.00;92.80
13123;DHT22;6627;50.920;12.050;2023-07-16T14:20:12;26.90;93.40
13123;DHT22;6627;50.920;12.050;2023-07-16T14:22:39;26.80;93.50
13123;DHT22;6627;50.920;12.050;2023-07-16T14:25:08;27.00;92.90
13123;DHT22;6627;50.920;12.050;2023-07-16T14:27:35;27.10;93.10
13123;DHT22;6627;50.920;12.050;2023-07-16T14:30:05;27.10;92.60
13123;DHT22;6627;50.920;12.050;2023-07-16T14:32:34;27.10;92.40
13123;DHT22;6627;50.920;12.050;2023-07-16T14:35:03;27.20;92.70
13123;DHT22;6627;50.920;12.050;2023-07-16T14:37:31;27.20;90.90
13123;DHT22;6627;50.920;12.050;2023-07-16T14:39:58;27.00;90.60
13123;DHT22;6627;50.920;12.050;2023-07-16T14:42:25;27.00;91.30
13123;DHT22;6627;50.920;12.050;2023-07-16T14:44:53;26.90;90.70
13123;DHT22;6627;50.920;12.050;2023-07-16T14:47:22;27.20;91.90
13123;DHT22;6627;50.920;12.050;2023-07-16T14:49:49;27.20;90.90
13123;DHT22;6627;50.920;12.050;2023-07-16T14:52:18;27.10;90.40
13123;DHT22;6627;50.920;12.050;2023-07-16T14:54:46;27.00;90.00
13123;DHT22;6627;50.920;12.050;2023-07-16T14:57:13;27.00;90.00
13123;DHT22;6627;50.920;12.050;2023-07-16T14:59:44;27.00;90.70
13123;DHT22;6627;50.920;12.050;2023-07-16T15:02:12;26.80;89.90
13123;DHT22;6627;50.920;12.050;2023-07-16T15:04:41;26.80;90.90
13123;DHT22;6627;50.920;12.050;2023-07-16T15:09:36;27.10;88.20
13123;DHT22;6627;50.920;12.050;2023-07-16T15:12:04;27.10;90.30
13123;DHT22;6627;50.920;12.050;2023-07-16T15:14:33;27.00;89.80
13123;DHT22;6627;50.920;12.050;2023-07-16T15:17:01;27.10;91.10
13123;DHT22;6627;50.920;12.050;2023-07-16T15:19:28;27.00;89.30
13123;DHT22;6627;50.920;12.050;2023-07-16T15:21:56;27.00;88.90
13123;DHT22;6627;50.920;12.050;2023-07-16T15:24:23;26.90;90.40
13123;DHT22;6627;50.920;12.050;2023-07-16T15:26:51;26.80;90.50
13123;DHT22;6627;50.920;12.050;2023-07-16T15:29:18;26.80;87.80
13123;DHT22;6627;50.920;12.050;2023-07-16T15:31:45;27.00;88.80
13123;DHT22;6627;50.920;12.050;2023-07-16T15:34:13;27.20;88.20
13123;DHT22;6627;50.920;12.050;2023-07-16T15:36:43;27.30;88.10
13123;DHT22;6627;50.920;12.050;2023-07-16T15:39:12;27.10;83.30
13123;DHT22;6627;50.920;12.050;2023-07-16T15:41:40;27.10;83.70
13123;DHT22;6627;50.920;12.050;2023-07-16T15:44:08;27.10;83.40
13123;DHT22;6627;50.920;12.050;2023-07-16T15:46:35;27.20;85.00
13123;DHT22;6627;50.920;12.050;2023-07-16T15:49:02;27.30;84.90
13123;DHT22;6627;50.920;12.050;2023-07-16T15:51:30;27.30;85.10
13123;DHT22;6627;50.920;12.050;2023-07-16T15:54:00;27.30;84.20
13123;DHT22;6627;50.920;12.050;2023-07-16T15:56:29;27.30;83.30
13123;DHT22;6627;50.920;12.050;2023-07-16T15:58:57;27.20;83.20
13123;DHT22;6627;50.920;12.050;2023-07-16T16:01:26;27.30;85.00
13123;DHT22;6627;50.920;12.050;2023-07-16T16:03:53;27.40;84.70
13123;DHT22;6627;50.920;12.050;2023-07-16T16:06:21;27.30;85.10
13123;DHT22;6627;50.920;12.050;2023-07-16T16:08:48;27.20;81.30
13123;DHT22;6627;50.920;12.050;2023-07-16T16:11:15;27.30;83.10
13123;DHT22;6627;50.920;12.050;2023-07-16T16:13:46;27.20;81.70
13123;DHT22;6627;50.920;12.050;2023-07-16T16:16:13;27.30;83.60
13123;DHT22;6627;50.920;12.050;2023-07-16T16:18:42;27.30;82.70
13123;DHT22;6627;50.920;12.050;2023-07-16T16:21:09;27.40;84.30
13123;DHT22;6627;50.920;12.050;2023-07-16T16:23:37;27.40;83.70
13123;DHT22;6627;50.920;12.050;2023-07-16T16:26:05;27.30;81.30
13123;DHT22;6627;50.920;12.050;2023-07-16T16:28:32;27.30;81.90
13123;DHT22;6627;50.920;12.050;2023-07-16T16:31:05;27.30;80.60
13123;DHT22;6627;50.920;12.050;2023-07-16T16:33:32;27.10;79.30
13123;DHT22;6627;50.920;12.050;2023-07-16T16:35:59;27.20;81.90
13123;DHT22;6627;50.920;12.050;2023-07-16T16:38:26;27.10;81.50
13123;DHT22;6627;50.920;12.050;2023-07-16T16:40:54;27.10;80.30
13123;DHT22;6627;50.920;12.050;2023-07-16T16:43:29;27.00;80.50
13123;DHT22;6627;50.920;12.050;2023-07-16T16:45:57;27.10;80.70
13123;DHT22;6627;50.920;12.050;2023-07-16T16:50:54;27.10;78.60
13123;DHT22;6627;50.920;12.050;2023-07-16T16:53:22;27.00;81.00
13123;DHT22;6627;50.920;12.050;2023-07-16T16:55:50;26.90;80.00
13123;DHT22;6627;50.920;12.050;2023-07-16T16:58:17;26.90;81.50
13123;DHT22;6627;50.920;12.050;2023-07-16T17:00:46;26.80;80.00
13123;DHT22;6627;50.920;12.050;2023-07-16T17:03:18;26.40;80.80
13123;DHT22;6627;50.920;12.050;2023-07-16T17:05:49;26.60;81.40
13123;DHT22;6627;50.920;12.050;2023-07-16T17:08:18;26.50;79.80
13123;DHT22;6627;50.920;12.050;2023-07-16T17:10:45;26.50;79.70
13123;DHT22;6627;50.920;12.050;2023-07-16T17:13:13;26.40;78.50
13123;DHT22;6627;50.920;12.050;2023-07-16T17:15:43;26.40;79.50
13123;DHT22;6627;50.920;12.050;2023-07-16T17:18:11;26.50;81.90
13123;DHT22;6627;50.920;12.050;2023-07-16T17:20:39;26.50;83.10
13123;DHT22;6627;50.920;12.050;2023-07-16T17:23:09;26.50;82.50
13123;DHT22;6627;50.920;12.050;2023-07-16T17:25:37;26.40;82.00
13123;DHT22;6627;50.920;12.050;2023-07-16T17:28:04;26.30;83.00
13123;DHT22;6627;50.920;12.050;2023-07-16T17:30:31;26.40;82.70
13123;DHT22;6627;50.920;12.050;2023-07-16T17:32:59;26.30;83.10
13123;DHT22;6627;50.920;12.050;2023-07-16T17:35:26;26.30;82.60
13123;DHT22;6627;50.920;12.050;2023-07-16T17:37:54;26.20;83.70
13123;DHT22;6627;50.920;12.050;2023-07-16T17:40:22;26.20;83.80
13123;DHT22;6627;50.920;12.050;2023-07-16T17:42:49;26.20;85.90
13123;DHT22;6627;50.920;12.050;2023-07-16T17:47:45;26.10;85.30